Startpagina
METAR-TAF:

METAR-TAF

Vliegvelden :

Aeroporto Internacional do Recife

Recife, Pernambuco, Brazilië

breedte: 08-08S, lengte: 034-55W, hoogte: 19 m

Actueel weer

Dit bericht is 22 minuten geleden gemaakt, om 03:00 UTC
Wind 4 kt uit het zuidwesten
Temperatuur 23°C
Vochtigheid 78%
Druk 1016 hPa
Zicht 10 km of meer
geen wolken onder 1500 m en geen cumulonimbus

METAR: SBRF 170300Z 23004KT CAVOK 23/19 Q1016

Tijdstip: 00:22 (03:22 UTC)

Verwachting

Dit bericht is 5 uur en het 22 minuten geleden gemaakt, om 22:00 UTC
Verwachting geldig van 17 om 00 UTC tot 17 om 24 UTC
Wind 5 kt uit het oosten
Zicht 10 km of meer
Weinig wolken op 1800 ft
Wijzigt naar
van 17 om 11 UTC tot 17 om 13 UTC
Wind 10 kt uit het oosten

TAF: SBRF 162200Z 1700/1724 08005KT 9999 FEW018 TN23/1707Z TX28/1716Z BECMG 1711/1713 09010KT RMK PFM

Waarnemingen en weersverwachtingen van meer dan 4000 vliegvelden (METAR en TAF).

De beschikbare stations zijn de gele en rode punten op de kaart.

Ga met uw muis naar het station om de naam te zien.

Klik dan om waarnemingen en weersverwachtingen te zien.

kaart wijzigen: klik op de groene knoppen met een zwart kruis om in te zoomen, op de groene knop met een streepje om uit te zoomen of op de groene pijlen voor aangrenzende kaarten.


METAR-TAF: